Time;durP1;ratioP1;P1;durP2;ratioP2;P2;SDS_P1;SDS_P2;PMS_P1;PMS_P2;Temp;Humidity;BMP_temperature;BMP_pressure;BME280_temperature;BME280_humidity;BME280_pressure;Samples;Min_cycle;Max_cycle;Signal;HPM_P1;HPM_P2
2021/05/31 00:00:14;;;;;;;5.18;3.10;;;;;;;7.50;100.00;96303.28;1030758;28;20641;-73
2021/05/31 00:00:44;;;;;;;8.05;2.92;;;;;;;7.47;100.00;96295.13;1031028;28;20023;-73
2021/05/31 00:01:15;;;;;;;5.80;3.78;;;;;;;7.53;100.00;96307.28;1030386;28;20273;-73
2021/05/31 00:01:45;;;;;;;4.57;3.05;;;;;;;7.48;100.00;96296.75;1035079;28;20013;-72
2021/05/31 00:02:16;;;;;;;5.25;3.08;;;;;;;7.52;100.00;96301.25;1036325;28;20025;-73
2021/05/31 00:02:49;;;;;;;5.47;3.03;;;;;;;7.47;100.00;96282.06;1038973;28;20018;-72
2021/05/31 00:03:22;;;;;;;6.13;3.22;;;;;;;7.46;100.00;96288.31;1030573;28;20270;-73
2021/05/31 00:03:54;;;;;;;5.18;2.97;;;;;;;7.52;100.00;96303.88;1042638;28;20263;-72
2021/05/31 00:04:24;;;;;;;6.80;3.40;;;;;;;7.50;100.00;96303.28;1038703;28;20104;-73
2021/05/31 00:04:55;;;;;;;4.50;3.50;;;;;;;7.47;100.00;96300.34;1031826;28;20344;-73
2021/05/31 00:05:25;;;;;;;6.35;3.65;;;;;;;7.47;100.00;96297.75;1030539;28;20018;-73
2021/05/31 00:05:56;;;;;;;6.57;3.75;;;;;;;7.46;100.00;96304.78;1030460;28;20015;-72
2021/05/31 00:06:26;;;;;;;5.28;3.47;;;;;;;7.47;100.00;96297.75;1031319;28;20015;-73
2021/05/31 00:07:17;;;;;;;5.72;3.67;;;;;;;7.44;100.00;96300.81;1038820;28;20017;-73
2021/05/31 00:07:51;;;;;;;5.82;4.05;;;;;;;7.40;100.00;96292.63;1037540;28;20021;-73
2021/05/31 00:08:21;;;;;;;5.03;3.72;;;;;;;7.44;100.00;96301.59;1040404;28;20297;-73
2021/05/31 00:08:52;;;;;;;6.55;3.92;;;;;;;7.45;100.00;96299.81;1038606;28;20275;-73
2021/05/31 00:09:22;;;;;;;6.75;4.28;;;;;;;7.45;100.00;96305.81;1038700;28;20017;-73
2021/05/31 00:09:55;;;;;;;7.18;4.70;;;;;;;7.46;100.00;96299.56;1038237;28;20021;-73
2021/05/31 00:10:26;;;;;;;7.38;5.03;;;;;;;7.41;100.00;96288.19;1035120;28;20127;-73
2021/05/31 00:10:56;;;;;;;9.10;5.78;;;;;;;7.39;100.00;96292.88;1034634;28;21011;-73
2021/05/31 00:11:27;;;;;;;8.45;6.18;;;;;;;7.44;100.00;96300.81;1025914;28;20023;-72
2021/05/31 00:11:58;;;;;;;15.43;8.55;;;;;;;7.43;100.00;96300.00;1026598;28;20018;-73
2021/05/31 00:12:29;;;;;;;15.80;8.40;;;;;;;7.39;100.00;96290.25;1030372;28;20034;-73
2021/05/31 00:12:59;;;;;;;16.20;8.63;;;;;;;7.37;100.00;96289.69;1030922;28;20270;-73
2021/05/31 00:13:30;;;;;;;14.57;7.45;;;;;;;7.39;100.00;96290.25;1029906;28;20065;-73
2021/05/31 00:14:00;;;;;;;10.38;6.13;;;;;;;7.40;100.00;96294.47;1034763;28;20025;-73
2021/05/31 00:14:31;;;;;;;12.95;5.22;;;;;;;7.30;100.00;96280.16;1039777;28;20036;-73
2021/05/31 00:15:01;;;;;;;10.35;5.35;;;;;;;7.40;100.00;96295.25;1038660;28;20020;-73
2021/05/31 00:15:32;;;;;;;6.80;4.28;;;;;;;7.38;100.00;96286.03;1042550;28;20444;-71
2021/05/31 00:16:03;;;;;;;5.25;3.90;;;;;;;7.32;100.00;96280.72;1033925;28;20029;-73
2021/05/31 00:16:34;;;;;;;4.22;3.58;;;;;;;7.32;100.00;96282.56;1026881;28;20027;-73
2021/05/31 00:17:04;;;;;;;4.72;3.95;;;;;;;7.40;100.00;96290.03;1028509;28;20018;-73
2021/05/31 00:17:35;;;;;;;4.85;3.65;;;;;;;7.31;100.00;96286.97;1026457;28;20069;-73
2021/05/31 00:18:05;;;;;;;5.97;3.40;;;;;;;7.38;100.00;96291.25;1026002;28;20053;-74
2021/05/31 00:18:36;;;;;;;6.68;3.60;;;;;;;7.29;100.00;96278.56;1023441;28;20026;-73
2021/05/31 00:19:07;;;;;;;5.25;3.35;;;;;;;7.33;100.00;96287.53;1030368;28;20511;-73
2021/05/31 00:19:37;;;;;;;5.05;3.72;;;;;;;7.24;100.00;96280.28;1034822;28;20022;-72
2021/05/31 00:20:09;;;;;;;4.47;3.33;;;;;;;7.22;100.00;96277.91;1038444;28;20288;-73
2021/05/31 00:20:39;;;;;;;3.92;3.47;;;;;;;7.24;100.00;96280.28;1038506;28;20021;-73
2021/05/31 00:21:10;;;;;;;4.50;3.17;;;;;;;7.31;100.00;96289.59;1034762;28;20272;-73
2021/05/31 00:21:40;;;;;;;7.07;3.92;;;;;;;7.30;100.00;96289.81;1034492;28;20022;-73
2021/05/31 00:22:11;;;;;;;5.80;3.60;;;;;;;7.30;100.00;96289.81;1034469;28;20084;-73
2021/05/31 00:22:41;;;;;;;4.80;3.30;;;;;;;7.28;100.00;96282.22;1038864;28;20052;-73
2021/05/31 00:23:12;;;;;;;8.27;3.65;;;;;;;7.30;100.00;96290.59;1036795;28;20499;-73
2021/05/31 00:23:42;;;;;;;5.32;3.60;;;;;;;7.29;100.00;96296.06;1034093;28;20010;-72
2021/05/31 00:24:13;;;;;;;6.28;3.45;;;;;;;7.30;100.00;96290.59;1030258;28;20034;-73
2021/05/31 00:24:43;;;;;;;4.47;3.45;;;;;;;7.25;100.00;96293.09;1034143;28;20017;-73
2021/05/31 00:25:14;;;;;;;5.47;4.03;;;;;;;7.25;100.00;96287.88;1034721;28;20515;-73
2021/05/31 00:25:44;;;;;;;5.20;3.42;;;;;;;7.25;100.00;96293.09;1033990;28;20026;-73
2021/05/31 00:26:16;;;;;;;8.50;4.25;;;;;;;7.21;100.00;96289.38;1034489;28;20026;-73
2021/05/31 00:26:46;;;;;;;4.50;3.58;;;;;;;7.21;100.00;96286.75;1033715;28;20014;-72
2021/05/31 00:27:17;;;;;;;4.38;3.15;;;;;;;7.21;100.00;96285.94;1038285;28;20272;-73
2021/05/31 00:27:47;;;;;;;7.38;3.60;;;;;;;7.21;100.00;96285.94;1038933;28;20021;-73
2021/05/31 00:28:18;;;;;;;7.22;3.45;;;;;;;7.23;100.00;96289.91;1034256;28;20444;-73
2021/05/31 00:28:48;;;;;;;3.83;3.25;;;;;;;7.25;100.00;96289.72;1034065;28;20025;-72
2021/05/31 00:29:24;;;;;;;5.03;3.58;;;;;;;7.25;100.00;96293.09;1030751;28;20085;-73
2021/05/31 00:29:57;;;;;;;8.38;3.80;;;;;;;7.20;100.00;96285.16;1031110;28;20014;-73
2021/05/31 00:30:27;;;;;;;5.30;3.40;;;;;;;7.25;100.00;96289.72;1029990;28;20277;-72
2021/05/31 00:31:00;;;;;;;5.82;3.38;;;;;;;7.15;100.00;96271.22;1032806;28;20026;-73
2021/05/31 00:31:31;;;;;;;5.57;3.60;;;;;;;7.02;100.00;96257.38;1034363;28;20049;-73
2021/05/31 00:32:01;;;;;;;4.93;3.17;;;;;;;7.22;100.00;96288.34;1034502;28;20705;-73
2021/05/31 00:32:32;;;;;;;6.07;3.15;;;;;;;7.16;100.00;96275.41;1030192;28;20501;-73
2021/05/31 00:33:03;;;;;;;4.25;3.20;;;;;;;7.22;100.00;96288.34;1034451;28;20021;-73
2021/05/31 00:33:33;;;;;;;6.55;3.95;;;;;;;7.22;100.00;96285.72;1034418;28;20311;-73
2021/05/31 00:34:04;;;;;;;5.57;3.70;;;;;;;7.14;100.00;96274.81;1030681;28;20019;-73
2021/05/31 00:34:35;;;;;;;5.32;4.18;;;;;;;7.22;100.00;96279.72;1029987;28;20579;-73
2021/05/31 00:35:06;;;;;;;5.70;3.95;;;;;;;7.22;100.00;96288.34;1033388;28;20041;-72
2021/05/31 00:35:37;;;;;;;5.97;3.80;;;;;;;7.24;100.00;96288.91;1030507;28;20022;-73
2021/05/31 00:36:07;;;;;;;3.75;3.03;;;;;;;7.22;100.00;96288.34;1033841;28;20269;-73
2021/05/31 00:36:38;;;;;;;4.15;3.45;;;;;;;7.23;100.00;96284.69;1026202;28;20696;-73
2021/05/31 00:37:08;;;;;;;5.50;3.97;;;;;;;7.14;100.00;96265.19;1034864;28;20052;-73
2021/05/31 00:37:39;;;;;;;6.35;3.13;;;;;;;7.22;100.00;96288.34;1038750;28;20025;-73
2021/05/31 00:38:09;;;;;;;8.20;4.00;;;;;;;7.21;100.00;96283.34;1034141;28;20026;-72
2021/05/31 00:38:40;;;;;;;18.30;4.38;;;;;;;7.18;100.00;96282.00;1038280;28;20025;-73
2021/05/31 00:39:13;;;;;;;9.02;3.78;;;;;;;7.19;100.00;96282.78;1034772;28;20022;-73
2021/05/31 00:39:44;;;;;;;5.45;3.05;;;;;;;7.19;100.00;96288.00;1034591;28;20258;-73
2021/05/31 00:40:15;;;;;;;6.60;3.63;;;;;;;7.20;100.00;96285.16;1035717;28;20048;-72
2021/05/31 00:40:46;;;;;;;4.95;3.70;;;;;;;7.14;100.00;96274.81;1029708;28;20028;-72
2021/05/31 00:41:16;;;;;;;8.45;3.30;;;;;;;7.22;100.00;96283.13;1030770;28;20260;-73
2021/05/31 00:41:49;;;;;;;5.90;3.92;;;;;;;7.16;100.00;96276.19;1030865;28;20022;-73
2021/05/31 00:42:19;;;;;;;4.65;3.72;;;;;;;7.19;100.00;96283.56;1034808;28;20026;-73
2021/05/31 00:42:50;;;;;;;6.60;3.83;;;;;;;7.20;100.00;96284.34;1038125;28;20252;-73
2021/05/31 00:43:20;;;;;;;7.28;3.80;;;;;;;7.19;100.00;96277.56;1031093;28;20023;-73
2021/05/31 00:43:51;;;;;;;8.55;4.60;;;;;;;7.10;100.00;96269.25;1034834;28;20026;-72
2021/05/31 00:44:22;;;;;;;7.95;3.97;;;;;;;7.16;100.00;96278.00;1028969;28;20022;-73
2021/05/31 00:44:52;;;;;;;7.68;4.22;;;;;;;7.15;100.00;96277.22;1026683;28;20077;-74
2021/05/31 00:45:23;;;;;;;4.50;3.40;;;;;;;7.16;100.00;96278.00;1030844;28;20022;-73
2021/05/31 00:45:53;;;;;;;4.40;3.60;;;;;;;7.18;100.00;96279.38;1026678;28;20023;-73
2021/05/31 00:46:24;;;;;;;4.78;3.42;;;;;;;7.18;100.00;96282.00;1030742;28;20793;-73
2021/05/31 00:46:54;;;;;;;6.40;3.85;;;;;;;7.18;100.00;96278.59;1034980;28;20532;-73
2021/05/31 00:47:25;;;;;;;4.38;3.47;;;;;;;7.17;100.00;96276.97;1035026;28;20022;-72
2021/05/31 00:47:57;;;;;;;7.70;3.58;;;;;;;7.14;100.00;96278.22;1034784;28;20013;-73
2021/05/31 00:48:28;;;;;;;8.57;3.67;;;;;;;7.12;100.00;96272.47;1030846;28;20441;-74
2021/05/31 00:48:59;;;;;;;4.30;3.40;;;;;;;7.15;100.00;96277.22;1030559;28;20320;-73
2021/05/31 00:49:35;;;;;;;4.97;3.28;;;;;;;7.03;100.00;96255.53;1032544;28;20046;-73
2021/05/31 00:50:06;;;;;;;5.75;3.90;;;;;;;7.09;100.00;96262.47;1031836;28;20073;-72
2021/05/31 00:50:36;;;;;;;4.30;3.35;;;;;;;7.16;100.00;96270.19;1027681;28;20436;-73
2021/05/31 00:51:08;;;;;;;4.68;3.20;;;;;;;7.16;100.00;96268.38;1032721;28;20030;-73
2021/05/31 00:51:38;;;;;;;5.15;3.60;;;;;;;7.07;100.00;96254.06;1035930;28;20026;-73
2021/05/31 00:52:09;;;;;;;5.90;3.63;;;;;;;7.15;100.00;96269.41;1035103;28;20315;-73
2021/05/31 00:52:39;;;;;;;6.78;3.88;;;;;;;7.13;100.00;96268.81;1034485;28;20022;-73
2021/05/31 00:53:10;;;;;;;7.47;3.88;;;;;;;7.13;100.00;96271.44;1030623;28;20026;-73
2021/05/31 00:53:40;;;;;;;6.20;3.92;;;;;;;7.08;100.00;96266.09;1030795;28;20117;-72
2021/05/31 00:54:11;;;;;;;5.25;3.58;;;;;;;7.05;100.00;96264.75;1031074;28;20057;-73
2021/05/31 00:54:43;;;;;;;5.55;3.92;;;;;;;7.09;100.00;96267.69;1034548;28;20030;-73
2021/05/31 00:55:13;;;;;;;5.50;3.85;;;;;;;7.06;100.00;96265.53;1038966;28;20034;-73
2021/05/31 00:55:44;;;;;;;4.20;3.35;;;;;;;7.05;100.00;96271.78;1034389;28;20870;-73
2021/05/31 00:56:14;;;;;;;4.65;3.45;;;;;;;7.04;100.00;96264.94;1034702;28;20034;-73
2021/05/31 00:56:45;;;;;;;6.43;4.10;;;;;;;7.03;100.00;96268.59;1026767;28;20054;-73
2021/05/31 00:57:16;;;;;;;7.40;4.10;;;;;;;7.02;100.00;96267.78;1026799;28;20034;-72
2021/05/31 00:57:46;;;;;;;4.32;3.30;;;;;;;7.02;100.00;96269.63;1034506;28;20085;-73
2021/05/31 00:58:17;;;;;;;9.10;3.97;;;;;;;6.94;100.00;96264.72;1039239;28;20029;-73
2021/05/31 00:58:47;;;;;;;8.93;4.10;;;;;;;7.00;100.00;96267.22;1030468;28;20124;-73
2021/05/31 00:59:18;;;;;;;5.05;3.67;;;;;;;7.00;100.00;96269.81;1031159;28;20532;-73
2021/05/31 00:59:48;;;;;;;5.50;3.80;;;;;;;7.00;100.00;96266.44;1033181;28;20030;-73
2021/05/31 01:00:19;;;;;;;7.32;3.97;;;;;;;6.98;100.00;96271.88;1031566;28;20423;-73
2021/05/31 01:00:50;;;;;;;8.80;3.97;;;;;;;7.01;100.00;96268.03;1035717;28;20030;-73
2021/05/31 01:01:21;;;;;;;5.35;3.63;;;;;;;7.00;100.00;96266.44;1038480;28;20033;-73
2021/05/31 01:01:51;;;;;;;6.50;3.75;;;;;;;6.85;100.00;96246.81;1043626;28;20539;-73
2021/05/31 01:02:22;;;;;;;4.95;3.60;;;;;;;6.93;100.00;96255.31;1040175;28;20561;-73
2021/05/31 01:02:53;;;;;;;8.80;4.00;;;;;;;6.95;100.00;96267.13;1030711;28;20136;-73
2021/05/31 01:03:24;;;;;;;7.88;3.88;;;;;;;6.89;100.00;96262.00;1031879;28;20038;-73
2021/05/31 01:03:54;;;;;;;8.93;3.67;;;;;;;6.93;100.00;96270.97;1031420;28;20285;-73
2021/05/31 01:04:25;;;;;;;6.10;4.22;;;;;;;6.92;100.00;96267.56;1031647;28;20038;-73
2021/05/31 01:04:55;;;;;;;6.80;4.53;;;;;;;6.90;100.00;96268.81;1031570;28;20072;-74
2021/05/31 01:05:26;;;;;;;5.82;3.97;;;;;;;6.89;100.00;96272.44;1039911;28;20505;-73
2021/05/31 01:05:57;;;;;;;7.13;4.28;;;;;;;6.88;100.00;96266.44;1034780;28;20034;-73
2021/05/31 01:06:36;;;;;;;5.55;4.00;;;;;;;6.83;100.00;96261.09;1035474;28;20065;-74
2021/05/31 01:07:16;;;;;;;6.25;3.65;;;;;;;6.85;100.00;96272.09;1035521;28;20770;-73
2021/05/31 01:07:49;;;;;;;;;;;;;;;6.82;100.00;96268.13;1036062;28;20273;-73
2021/05/31 01:08:44;;;;;;;6.55;3.90;;;;;;;6.81;100.00;96268.38;1035513;28;19921;-73
2021/05/31 01:09:17;;;;;;;5.95;3.90;;;;;;;6.72;100.00;96252.25;1043852;28;20633;-73
2021/05/31 01:10:07;;;;;;;4.82;3.45;;;;;;;6.78;100.00;96267.00;1038934;28;20421;-73
2021/05/31 01:10:47;;;;;;;4.13;3.60;;;;;;;6.77;100.00;96260.19;1039688;28;20251;-72
2021/05/31 01:11:43;;;;;;;7.00;3.75;;;;;;;6.75;100.00;96262.22;1035583;28;20316;-73
2021/05/31 01:12:20;;;;;;;6.65;4.10;;;;;;;6.70;100.00;96253.47;1035377;28;20030;-73
2021/05/31 01:12:59;;;;;;;5.68;3.95;;;;;;;6.73;100.00;96260.84;1031394;28;20787;-73
2021/05/31 01:13:45;;;;;;;5.53;3.72;;;;;;;6.66;100.00;96252.34;1038565;28;20858;-73
2021/05/31 01:14:22;;;;;;;6.55;4.28;;;;;;;6.66;100.00;96249.72;1035560;28;20269;-73
2021/05/31 01:14:58;;;;;;;5.88;4.22;;;;;;;6.76;100.00;96269.00;1031363;28;20273;-73
2021/05/31 01:15:33;;;;;;;6.05;4.05;;;;;;;6.71;100.00;96248.06;1027820;28;20358;-73
2021/05/31 01:16:07;;;;;;;10.40;4.28;;;;;;;6.76;100.00;96263.00;1034778;28;20277;-72
2021/05/31 01:16:49;;;;;;;6.60;4.10;;;;;;;6.68;100.00;96255.53;1038297;28;20904;-73
2021/05/31 01:17:42;;;;;;;4.63;3.95;;;;;;;6.75;100.00;96264.84;1039785;28;20710;-73
2021/05/31 01:18:21;;;;;;;9.88;4.47;;;;;;;6.72;100.00;96262.66;1035279;28;20272;-73
2021/05/31 01:18:51;;;;;;;4.88;3.92;;;;;;;6.72;100.00;96264.50;1039422;28;20291;-73
2021/05/31 01:19:46;;;;;;;5.63;4.30;;;;;;;6.72;100.00;96267.88;1031624;28;20635;-73
2021/05/31 01:20:53;;;;;;;5.20;3.80;;;;;;;6.65;100.00;96261.19;1022863;29;20041;-72
2021/05/31 01:21:27;;;;;;;5.75;3.90;;;;;;;6.70;100.00;96269.91;1036446;28;21035;-73
2021/05/31 01:22:09;;;;;;;5.40;4.05;;;;;;;6.63;100.00;96256.19;1035695;28;20820;-73
2021/05/31 01:22:39;;;;;;;4.57;3.88;;;;;;;6.68;100.00;96261.53;1032000;28;20273;-73
2021/05/31 01:23:11;;;;;;;4.97;3.75;;;;;;;6.64;100.00;96264.78;1035026;28;20308;-73
2021/05/31 01:23:42;;;;;;;5.97;4.00;;;;;;;6.67;100.00;96266.97;1035349;28;20026;-73
2021/05/31 01:24:42;;;;;;;6.80;4.50;;;;;;;6.64;100.00;96270.84;1031445;28;20272;-73
2021/05/31 01:25:37;;;;;;;5.30;3.63;;;;;;;6.63;100.00;96269.22;1025533;28;20844;-73
2021/05/31 01:26:12;;;;;;;5.28;4.05;;;;;;;6.61;100.00;96276.50;1034769;28;20340;-73
2021/05/31 01:27:10;;;;;;;6.65;4.50;;;;;;;6.61;100.00;96268.66;1030983;28;20312;-73
2021/05/31 01:28:01;;;;;;;6.72;4.15;;;;;;;6.53;100.00;96258.53;1030173;28;20324;-73
2021/05/31 01:28:46;;;;;;;7.25;3.97;;;;;;;6.58;100.00;96263.91;1034779;28;20258;-73
2021/05/31 01:29:16;;;;;;;4.18;3.47;;;;;;;6.58;100.00;96264.69;1032347;28;20038;-73
2021/05/31 01:29:53;;;;;;;4.88;3.72;;;;;;;6.51;100.00;96255.38;1030979;28;20778;-73
2021/05/31 01:30:23;;;;;;;4.72;3.83;;;;;;;6.56;100.00;96260.72;1031587;28;20415;-73
2021/05/31 01:30:55;;;;;;;7.65;4.38;;;;;;;6.59;100.00;96266.28;1031572;28;20276;-74
2021/05/31 01:31:25;;;;;;;6.10;4.90;;;;;;;6.60;100.00;96262.63;1031566;28;20061;-72
2021/05/31 01:31:58;;;;;;;8.35;4.47;;;;;;;6.56;100.00;96253.69;1032695;28;20249;-73
2021/05/31 01:32:46;;;;;;;6.43;3.92;;;;;;;6.59;100.00;96268.09;1032121;28;20095;-73
2021/05/31 01:33:19;;;;;;;4.70;3.95;;;;;;;6.59;100.00;96262.88;1035207;28;20322;-73
2021/05/31 01:33:49;;;;;;;5.05;4.30;;;;;;;6.58;100.00;96266.50;1039520;28;20268;-73
2021/05/31 01:34:25;;;;;;;5.75;3.70;;;;;;;6.56;100.00;96264.09;1039872;28;20307;-73
2021/05/31 01:34:55;;;;;;;11.10;4.88;;;;;;;6.54;100.00;96254.94;1039167;28;20142;-74
2021/05/31 01:35:28;;;;;;;7.07;4.63;;;;;;;6.56;100.00;96261.50;1037528;28;20698;-73
2021/05/31 01:35:58;;;;;;;5.28;4.68;;;;;;;6.49;100.00;96253.00;1040133;28;20495;-73
2021/05/31 01:36:30;;;;;;;4.47;3.80;;;;;;;6.57;100.00;96265.72;1035519;28;20265;-73
2021/05/31 01:37:12;;;;;;;7.25;4.10;;;;;;;6.49;100.00;96250.38;1032151;28;20094;-73
2021/05/31 01:37:42;;;;;;;8.23;4.28;;;;;;;6.49;100.00;96249.59;1035627;28;20261;-72
2021/05/31 01:38:16;;;;;;;6.22;4.22;;;;;;;6.54;100.00;96255.72;1026778;28;20305;-72
2021/05/31 01:38:47;;;;;;;4.97;4.10;;;;;;;6.55;100.00;96261.75;1026871;28;20022;-72
2021/05/31 01:39:22;;;;;;;9.70;4.22;;;;;;;6.53;100.00;96258.53;1035700;28;20283;-73
2021/05/31 01:39:54;;;;;;;6.13;3.85;;;;;;;6.55;100.00;96261.75;1035346;28;20018;-73
2021/05/31 01:40:25;;;;;;;5.47;4.13;;;;;;;6.54;100.00;96260.94;1035399;28;20276;-72
2021/05/31 01:40:55;;;;;;;7.13;4.32;;;;;;;6.55;100.00;96257.31;1031245;28;20268;-73
2021/05/31 01:41:26;;;;;;;5.05;4.30;;;;;;;6.54;100.00;96255.72;1027231;28;20019;-73
2021/05/31 01:41:56;;;;;;;5.47;4.47;;;;;;;6.48;100.00;96248.81;1031593;28;20026;-73
2021/05/31 01:42:27;;;;;;;7.55;4.18;;;;;;;6.48;100.00;96248.00;1032034;28;20039;-73
2021/05/31 01:43:00;;;;;;;5.57;4.55;;;;;;;6.55;100.00;96256.53;1035499;28;20026;-73
2021/05/31 01:43:30;;;;;;;5.38;4.15;;;;;;;6.54;100.00;96254.94;1034351;28;20427;-73
2021/05/31 01:44:00;;;;;;;6.47;4.20;;;;;;;6.47;100.00;96244.63;1032678;28;20268;-72
2021/05/31 01:44:31;;;;;;;4.88;4.00;;;;;;;6.54;100.00;96260.94;1032939;28;20532;-72
2021/05/31 01:45:02;;;;;;;6.88;3.92;;;;;;;6.52;100.00;96262.19;1035231;28;20042;-73
2021/05/31 01:45:32;;;;;;;5.93;4.13;;;;;;;6.43;100.00;96242.66;1031780;28;20040;-73
2021/05/31 01:46:03;;;;;;;5.60;4.20;;;;;;;6.51;100.00;96260.59;1031181;28;20089;-73
2021/05/31 01:46:34;;;;;;;4.80;4.30;;;;;;;6.47;100.00;96254.22;1031781;28;20088;-73
2021/05/31 01:47:08;;;;;;;5.28;4.32;;;;;;;6.41;100.00;96247.31;1031889;28;20081;-73
2021/05/31 01:47:39;;;;;;;6.00;4.13;;;;;;;6.41;100.00;96244.72;1038659;28;20276;-74
2021/05/31 01:48:11;;;;;;;5.30;4.03;;;;;;;6.47;100.00;96256.81;1031492;28;20747;-73
2021/05/31 01:48:42;;;;;;;5.43;4.40;;;;;;;6.44;100.00;96255.47;1040319;28;20045;-73
2021/05/31 01:49:13;;;;;;;5.43;3.90;;;;;;;6.40;100.00;96245.72;1033285;28;20296;-73
2021/05/31 01:49:44;;;;;;;7.00;4.43;;;;;;;6.42;100.00;96252.28;1035220;28;20271;-73
2021/05/31 01:50:15;;;;;;;6.53;4.60;;;;;;;6.47;100.00;96256.81;1027451;28;20038;-72
2021/05/31 01:50:46;;;;;;;5.85;3.92;;;;;;;6.48;100.00;96261.03;1027864;28;20629;-72
2021/05/31 01:51:19;;;;;;;5.40;4.20;;;;;;;6.43;100.00;96250.47;1031156;28;20036;-73
2021/05/31 01:51:50;;;;;;;4.97;4.30;;;;;;;6.43;100.00;96253.09;1034640;28;20029;-72
2021/05/31 01:52:23;;;;;;;9.45;4.70;;;;;;;6.33;100.00;96238.78;1039155;28;20792;-72
2021/05/31 01:52:54;;;;;;;6.55;4.28;;;;;;;6.35;100.00;96249.00;1033651;28;20069;-72
2021/05/31 01:53:24;;;;;;;5.97;4.40;;;;;;;6.32;100.00;96241.63;1030889;28;20305;-72
2021/05/31 01:53:55;;;;;;;4.97;4.15;;;;;;;6.34;100.00;96247.41;1031538;28;20531;-73
2021/05/31 01:54:25;;;;;;;5.32;4.10;;;;;;;6.31;100.00;96247.84;1030752;28;20026;-73
2021/05/31 01:54:56;;;;;;;5.22;4.22;;;;;;;6.37;100.00;96255.59;1027293;28;20366;-73
2021/05/31 01:55:26;;;;;;;5.38;4.55;;;;;;;6.35;100.00;96252.38;1027479;28;20031;-73
2021/05/31 01:55:57;;;;;;;5.00;3.92;;;;;;;6.34;100.00;96253.41;1025846;28;20552;-73
2021/05/31 01:56:28;;;;;;;5.88;4.15;;;;;;;6.26;100.00;96248.50;1027022;28;20030;-72
2021/05/31 01:56:58;;;;;;;6.55;4.25;;;;;;;6.30;100.00;96251.47;1035433;28;20032;-73
2021/05/31 01:57:29;;;;;;;5.22;4.32;;;;;;;6.25;100.00;96246.94;1035330;28;20300;-73
2021/05/31 01:57:59;;;;;;;7.63;4.35;;;;;;;6.23;100.00;96246.34;1035039;28;20021;-72
2021/05/31 01:58:29;;;;;;;8.57;4.50;;;;;;;6.26;100.00;96247.72;1031053;28;20022;-73
2021/05/31 01:59:00;;;;;;;6.28;4.68;;;;;;;6.25;100.00;96249.53;1030905;28;20699;-73
2021/05/31 01:59:31;;;;;;;6.45;4.57;;;;;;;6.25;100.00;96252.13;1033729;28;20473;-73
2021/05/31 02:00:05;;;;;;;5.70;4.15;;;;;;;6.16;100.00;96237.81;1031000;28;20037;-74
2021/05/31 02:00:36;;;;;;;4.50;3.85;;;;;;;6.20;100.00;96246.78;1035126;28;20355;-73
2021/05/31 02:01:06;;;;;;;5.47;4.50;;;;;;;6.13;100.00;96239.06;1036742;28;20260;-73
2021/05/31 02:01:37;;;;;;;5.45;4.38;;;;;;;6.17;100.00;96244.66;1035204;28;20072;-72
2021/05/31 02:02:07;;;;;;;5.90;4.22;;;;;;;6.18;100.00;96250.66;1031253;28;20022;-73
2021/05/31 02:02:38;;;;;;;6.68;4.70;;;;;;;6.15;100.00;96251.88;1030973;28;20027;-73
2021/05/31 02:03:09;;;;;;;6.55;3.92;;;;;;;6.13;100.00;96253.91;1030337;28;20030;-73
2021/05/31 02:03:39;;;;;;;6.20;4.57;;;;;;;6.12;100.00;96250.50;1035776;28;20496;-73
2021/05/31 02:04:10;;;;;;;6.60;4.60;;;;;;;6.07;100.00;96245.19;1043151;28;20029;-73
2021/05/31 02:04:40;;;;;;;5.72;4.40;;;;;;;6.11;100.00;96251.53;1038927;28;20490;-73
2021/05/31 02:05:14;;;;;;;5.43;4.55;;;;;;;5.99;100.00;96239.47;1035254;28;20030;-74
2021/05/31 02:05:44;;;;;;;7.05;4.60;;;;;;;6.07;100.00;96254.78;1034422;28;20537;-71
2021/05/31 02:06:15;;;;;;;6.60;4.53;;;;;;;6.05;100.00;96249.81;1035357;28;20268;-73
2021/05/31 02:06:52;;;;;;;9.38;4.55;;;;;;;6.05;100.00;96246.41;1036108;28;20100;-72
2021/05/31 02:07:22;;;;;;;7.15;4.35;;;;;;;6.06;100.00;96253.19;1035843;28;20034;-73
2021/05/31 02:07:55;;;;;;;5.90;4.68;;;;;;;6.04;100.00;96253.44;1034428;28;20264;-73
2021/05/31 02:08:25;;;;;;;5.90;4.50;;;;;;;6.03;100.00;96253.63;1035836;28;20073;-73
2021/05/31 02:08:56;;;;;;;8.05;4.45;;;;;;;6.00;100.00;96246.25;1030381;28;20258;-73
2021/05/31 02:09:26;;;;;;;6.93;4.53;;;;;;;6.00;100.00;96249.69;1038838;28;20075;-73
2021/05/31 02:09:57;;;;;;;6.60;4.60;;;;;;;6.01;100.00;96245.25;1036640;28;20018;-73
2021/05/31 02:10:27;;;;;;;7.18;4.97;;;;;;;6.00;100.00;96246.25;1035319;28;20109;-73
2021/05/31 02:11:01;;;;;;;5.13;4.32;;;;;;;5.98;100.00;96245.69;1034778;28;20125;-73
2021/05/31 02:11:43;;;;;;;7.22;4.70;;;;;;;5.97;100.00;96244.09;1030323;28;20506;-73
2021/05/31 02:12:13;;;;;;;6.63;4.70;;;;;;;5.96;100.00;96237.31;1035021;28;20276;-73
2021/05/31 02:12:57;;;;;;;5.55;4.38;;;;;;;5.87;100.00;96237.59;1035037;28;20721;-74
2021/05/31 02:13:28;;;;;;;6.38;4.47;;;;;;;5.96;100.00;96245.13;1032146;28;20037;-73
2021/05/31 02:14:02;;;;;;;5.43;4.72;;;;;;;5.90;100.00;96239.75;1031127;28;21097;-73
2021/05/31 02:14:54;;;;;;;7.30;5.20;;;;;;;5.91;100.00;96243.94;1029277;28;20113;-73
2021/05/31 02:15:28;;;;;;;6.80;4.65;;;;;;;5.90;100.00;96242.38;1027103;28;20953;-73
2021/05/31 02:16:06;;;;;;;6.43;4.88;;;;;;;5.88;100.00;96239.16;1030469;28;20257;-73
2021/05/31 02:16:40;;;;;;;6.03;4.78;;;;;;;5.87;100.00;96242.81;1038678;28;20296;-73
2021/05/31 02:17:28;;;;;;;8.07;5.43;;;;;;;5.86;100.00;96243.78;1035134;28;20264;-73
2021/05/31 02:18:15;;;;;;;5.97;4.45;;;;;;;5.83;100.00;96244.22;1035013;28;20245;-73
2021/05/31 02:18:52;;;;;;;7.00;4.90;;;;;;;5.77;100.00;96232.13;1041633;28;20699;-72
2021/05/31 02:19:22;;;;;;;8.02;4.65;;;;;;;5.79;100.00;96232.66;1034699;28;20310;-74
2021/05/31 02:19:55;;;;;;;6.35;4.53;;;;;;;5.72;100.00;96231.16;1030806;28;20272;-73
2021/05/31 02:20:26;;;;;;;6.43;4.68;;;;;;;5.73;100.00;96232.75;1031042;28;20066;-73
2021/05/31 02:21:06;;;;;;;4.63;4.03;;;;;;;5.73;100.00;96233.53;1031403;28;20265;-74
2021/05/31 02:21:37;;;;;;;6.40;4.50;;;;;;;5.74;100.00;96229.94;1029525;28;20058;-73
2021/05/31 02:22:09;;;;;;;7.25;4.90;;;;;;;5.72;100.00;96237.16;1034899;28;20029;-73
2021/05/31 02:22:42;;;;;;;7.03;4.85;;;;;;;5.71;100.00;96232.97;1031015;28;20269;-73
2021/05/31 02:23:13;;;;;;;6.60;4.45;;;;;;;5.70;100.00;96234.00;1025064;28;20269;-73
2021/05/31 02:23:44;;;;;;;6.28;5.05;;;;;;;5.65;100.00;96226.84;1026902;28;20639;-73
2021/05/31 02:24:14;;;;;;;9.00;5.60;;;;;;;5.59;100.00;96216.50;1031237;28;20563;-73
2021/05/31 02:24:45;;;;;;;11.85;5.25;;;;;;;5.65;100.00;96231.25;1042001;28;20021;-73
2021/05/31 02:25:15;;;;;;;6.70;5.05;;;;;;;5.63;100.00;96228.06;1034929;28;20037;-73
2021/05/31 02:25:48;;;;;;;12.60;5.18;;;;;;;5.67;100.00;96231.84;1034479;28;20498;-73
2021/05/31 02:26:18;;;;;;;6.60;5.00;;;;;;;5.65;100.00;96231.25;1030759;28;20317;-73
2021/05/31 02:26:49;;;;;;;6.95;4.80;;;;;;;5.66;100.00;96238.03;1030319;28;20273;-73
2021/05/31 02:27:19;;;;;;;7.13;5.32;;;;;;;5.62;100.00;96227.28;1030580;28;20037;-73
2021/05/31 02:27:50;;;;;;;7.00;4.90;;;;;;;5.66;100.00;96240.63;1026859;28;20480;-73
2021/05/31 02:28:20;;;;;;;5.80;4.70;;;;;;;5.65;100.00;96231.25;1033302;28;20661;-73
2021/05/31 02:28:51;;;;;;;6.93;4.80;;;;;;;5.64;100.00;96240.09;1026853;28;20121;-74
2021/05/31 02:29:21;;;;;;;6.95;4.70;;;;;;;5.62;100.00;96231.69;1026898;28;20030;-73
2021/05/31 02:29:52;;;;;;;8.88;4.55;;;;;;;5.57;100.00;96227.16;1035782;28;20030;-73
2021/05/31 02:30:22;;;;;;;9.70;4.75;;;;;;;5.57;100.00;96223.75;1030871;28;20030;-73
2021/05/31 02:30:53;;;;;;;8.55;5.00;;;;;;;5.58;100.00;96228.72;1031009;28;20085;-73
2021/05/31 02:31:24;;;;;;;5.15;4.57;;;;;;;5.50;100.00;96216.03;1030813;28;20034;-73
2021/05/31 02:31:54;;;;;;;8.38;5.30;;;;;;;5.57;100.00;96232.34;1027707;28;20031;-73
2021/05/31 02:32:24;;;;;;;7.28;4.63;;;;;;;5.57;100.00;96228.97;1030950;28;20066;-74
2021/05/31 02:32:59;;;;;;;8.23;5.20;;;;;;;5.58;100.00;96226.13;1030852;28;20030;-74
2021/05/31 02:33:30;;;;;;;6.68;5.00;;;;;;;5.58;100.00;96227.94;1033522;28;20027;-73
2021/05/31 02:34:00;;;;;;;8.07;4.75;;;;;;;5.53;100.00;96219.97;1034881;28;20272;-74
2021/05/31 02:34:31;;;;;;;7.80;5.05;;;;;;;5.59;100.00;96227.69;1035026;28;20026;-73
2021/05/31 02:35:01;;;;;;;6.20;4.60;;;;;;;5.50;100.00;96215.19;1031029;28;20022;-73